Enter the Airport ICAO Code

Search by Airport or City

Current Weather

SKCL | Alfonso Bonilla Aragón International Airport

Cali, Colombia

Last Update 25 Minutes Ago

Mostly Cloudy Sky

Temperature of 22 ºC

Light Winds from Variable Directions

Temperature

22 ºC

Dew Point Temperature

20 ºC

Relative Humidity

88.5 %

Wind Direction

Variable

Wind Velocity

4 km/h (02 kt)

Gusts

None

Visibility

Greater than 10 Kilometers

Sea Level Pressure

1015 hPa (Hectopascals)

Layers of Clouds

30% to 60% of Sky Covered from 701 mts (2300 ft) Above Ground Level.

60% to 90% of Sky Covered from 2743 mts (9000 ft) Above Ground Level.

METAR SKCL 270400Z VRB02KT 9999 SCT023 BKN090 22/20 Q1015 NOSIG RMK A2999

Weather Forecast

SKCL | Alfonso Bonilla Aragón International Airport

Cali, Colombia

Forecast valid for the next 20 Hours

From now on it is expected:

Mostly Cloudy Sky

Moderate Winds from NorthWest

In 2 to 6 hours it is expected the begining of:

Light Winds from Variable Directions

In 6 hours it is expected the begining of 4 hours with intermittent periods of:

Mist

In 12 to 14 hours it is expected the begining of:

Partly Cloudy Sky

In 15 to 17 hours it is expected the begining of:

Moderate Winds from NorthWest

Maximum Temperature

No Data

Minimum Temperature

No Data

TAF SKCL 262230Z 2700/2724 32012KT 9999 SCT030 BKN100 BECMG 2706/2710 VRB02KT TEMPO 2710/2714 5000 BR BECMG 2716/2718 SCT030 BECMG 2719/2721 32012KT SCT030CB TX31/2720Z TN18/2710Z